createdAt,value
2023-05-30T00:01:20.931Z,100127.44
2023-05-30T00:04:24.766Z,100153.56
2023-05-30T00:07:28.075Z,100081.59
2023-05-30T00:10:31.075Z,100141.94
2023-05-30T00:13:36.391Z,100105.63
2023-05-30T00:16:40.209Z,100107.31
2023-05-30T00:19:43.856Z,100100.94
2023-05-30T00:22:47.319Z,100092.91
2023-05-30T00:25:50.871Z,100111.75
2023-05-30T00:28:53.558Z,100093.75
2023-05-30T00:31:56.403Z,100096.44
2023-05-30T00:34:59.166Z,100122.78
2023-05-30T00:38:02.235Z,100099.41
2023-05-30T00:41:05.065Z,100068.75
2023-05-30T00:44:08.242Z,100107.97
2023-05-30T00:47:14.019Z,100122.22
2023-05-30T00:50:17.673Z,100128.38
2023-05-30T00:53:25.114Z,100086.47
2023-05-30T00:56:29.320Z,100120.31
2023-05-30T00:59:32.179Z,100122.19
2023-05-30T01:02:35.243Z,100101.19
2023-05-30T01:05:38.561Z,100054.66
2023-05-30T01:08:41.464Z,100117.88
2023-05-30T01:11:47.775Z,100136.38
2023-05-30T01:15:12.788Z,100132.59
2023-05-30T01:18:27.674Z,100132.06
2023-05-30T01:21:34.901Z,100137.88
2023-05-30T01:24:43.441Z,100127.16
2023-05-30T01:28:16.932Z,100086.31
2023-05-30T01:31:20.481Z,100108.59
2023-05-30T01:34:23.511Z,100104.03
2023-05-30T01:37:27.164Z,100086.28
2023-05-30T01:40:33.325Z,100070.66
2023-05-30T01:43:48.161Z,100129.63
2023-05-30T01:47:26.086Z,100055.97
2023-05-30T01:50:38.485Z,100063.47
2023-05-30T01:53:47.222Z,100116.97
2023-05-30T01:56:54.446Z,100126.56
2023-05-30T01:59:58.803Z,100122.88
2023-05-30T02:03:01.653Z,100090.34
2023-05-30T02:06:04.903Z,100057.25
2023-05-30T02:09:08.164Z,100117.25
2023-05-30T02:12:11.555Z,100118.06
2023-05-30T02:15:14.345Z,100109.41
2023-05-30T02:18:19.080Z,100063.91
2023-05-30T02:21:21.997Z,100115.81
2023-05-30T02:24:25.831Z,100099.09
2023-05-30T02:27:29.754Z,100071.75
2023-05-30T02:30:35.682Z,100123.94
2023-05-30T02:33:38.358Z,100123.31
2023-05-30T02:36:41.128Z,100072.63
2023-05-30T02:39:45.542Z,100127.66
2023-05-30T02:42:48.449Z,100114.91
2023-05-30T02:45:51.487Z,100131.81
2023-05-30T02:48:55.468Z,100114.84
2023-05-30T02:52:00.002Z,100090.97
2023-05-30T02:55:08.061Z,100065.81
2023-05-30T02:58:29.274Z,100069.75
2023-05-30T03:01:55.018Z,100135.63
2023-05-30T03:04:58.082Z,100129.69
2023-05-30T03:08:01.938Z,100133.97
2023-05-30T03:11:06.100Z,100062.22
2023-05-30T03:14:09.596Z,100072.91
2023-05-30T03:17:15.934Z,100130.28
2023-05-30T03:20:18.799Z,100066.72
2023-05-30T03:23:21.562Z,100070.75
2023-05-30T03:26:26.560Z,100142.47
2023-05-30T03:29:29.215Z,100127.13
2023-05-30T03:32:32.696Z,100135.81
2023-05-30T03:35:36.014Z,100074.44
2023-05-30T03:38:39.407Z,100139.81
2023-05-30T03:41:44.815Z,100116.59
2023-05-30T03:44:47.940Z,100117.47
2023-05-30T03:47:50.928Z,100145.19
2023-05-30T03:50:53.687Z,100088.16
2023-05-30T03:53:59.519Z,100098.16
2023-05-30T03:57:05.809Z,100141.88
2023-05-30T04:00:10.193Z,100088.66
2023-05-30T04:03:15.163Z,100119.47
2023-05-30T04:06:18.655Z,100106.63
2023-05-30T04:09:21.745Z,100164.31
2023-05-30T04:12:24.493Z,100130.75
2023-05-30T04:15:27.275Z,100158.22
2023-05-30T04:18:29.963Z,100152.38
2023-05-30T04:21:32.639Z,100120.34
2023-05-30T04:24:35.309Z,100167.97
2023-05-30T04:27:38.049Z,100155.63
2023-05-30T04:30:41.767Z,100109.09
2023-05-30T04:33:47.108Z,100121.78
2023-05-30T04:36:52.004Z,100168.13
2023-05-30T04:39:57.251Z,100141.50
2023-05-30T04:43:02.868Z,100124.88
2023-05-30T04:46:11.259Z,100159.84
2023-05-30T04:49:16.986Z,100155.25
2023-05-30T04:52:19.952Z,100140.50
2023-05-30T04:55:23.032Z,100141.84
2023-05-30T04:58:26.043Z,100182.72
2023-05-30T05:01:29.426Z,100166.03
2023-05-30T05:04:39.715Z,100185.09
2023-05-30T05:07:51.397Z,100138.84
2023-05-30T05:11:00.407Z,100196.84
2023-05-30T05:14:06.746Z,100180.41
2023-05-30T05:17:09.589Z,100196.72
2023-05-30T05:20:16.079Z,100135.75
2023-05-30T05:23:19.703Z,100185.88
2023-05-30T05:26:23.879Z,100213.41
2023-05-30T05:29:28.589Z,100219.03
2023-05-30T05:32:37.603Z,100204.19
2023-05-30T05:35:41.597Z,100200.41
2023-05-30T05:38:46.474Z,100207.03
2023-05-30T05:41:49.399Z,100188.16
2023-05-30T05:44:52.411Z,100174.97
2023-05-30T05:47:55.385Z,100230.53
2023-05-30T05:50:58.932Z,100208.47
2023-05-30T05:54:05.046Z,100209.81
2023-05-30T05:57:08.278Z,100225.84
2023-05-30T06:00:11.789Z,100228.28
2023-05-30T06:03:17.851Z,100186.16
2023-05-30T06:06:21.085Z,100198.00
2023-05-30T06:09:35.597Z,100226.44
2023-05-30T06:12:47.540Z,100208.13
2023-05-30T06:15:51.182Z,100238.63
2023-05-30T06:19:02.751Z,100214.25
2023-05-30T06:22:05.961Z,100212.81
2023-05-30T06:25:10.058Z,100213.28
2023-05-30T06:28:12.903Z,100267.13
2023-05-30T06:31:15.687Z,100265.25
2023-05-30T06:34:18.836Z,100232.69
2023-05-30T06:37:21.727Z,100207.00
2023-05-30T06:40:24.451Z,100220.94
2023-05-30T06:43:28.270Z,100218.81
2023-05-30T06:46:31.295Z,100240.06
2023-05-30T06:49:35.414Z,100238.53
2023-05-30T06:52:38.118Z,100279.38
2023-05-30T06:55:41.245Z,100234.81
2023-05-30T06:58:44.338Z,100214.19
2023-05-30T07:01:47.941Z,100255.34
2023-05-30T07:04:50.851Z,100294.13
2023-05-30T07:07:53.521Z,100267.50
2023-05-30T07:10:56.784Z,100278.13
2023-05-30T07:13:59.631Z,100294.34
2023-05-30T07:17:07.932Z,100273.03
2023-05-30T07:20:11.166Z,100297.66
2023-05-30T07:23:13.942Z,100297.06
2023-05-30T07:26:16.956Z,100288.44
2023-05-30T07:29:19.987Z,100250.75
2023-05-30T07:32:23.223Z,100280.03
2023-05-30T07:35:26.010Z,100310.13
2023-05-30T07:38:28.971Z,100293.81
2023-05-30T07:41:31.884Z,100281.66
2023-05-30T07:44:34.703Z,100270.84
2023-05-30T07:47:37.576Z,100255.03
2023-05-30T07:50:40.266Z,100315.59
2023-05-30T07:53:43.110Z,100251.31
2023-05-30T07:56:46.063Z,100318.78
2023-05-30T07:59:49.963Z,100272.84
2023-05-30T08:02:52.935Z,100254.06
2023-05-30T08:05:56.135Z,100287.19
2023-05-30T08:09:01.756Z,100285.56
2023-05-30T08:12:06.414Z,100288.44
2023-05-30T08:15:10.839Z,100271.78
2023-05-30T08:18:13.516Z,100286.16
2023-05-30T08:21:16.641Z,100305.31
2023-05-30T08:24:19.886Z,100313.94
2023-05-30T08:27:22.972Z,100276.38
2023-05-30T08:30:26.282Z,100304.59
2023-05-30T08:33:29.232Z,100300.94
2023-05-30T08:36:33.806Z,100276.06
2023-05-30T08:39:36.695Z,100316.84
2023-05-30T08:42:43.909Z,100340.50
2023-05-30T08:45:47.822Z,100334.81
2023-05-30T08:48:52.240Z,100302.16
2023-05-30T08:51:56.100Z,100288.00
2023-05-30T08:55:10.697Z,100341.28
2023-05-30T08:58:22.451Z,100351.47
2023-05-30T09:01:28.521Z,100356.19
2023-05-30T09:04:32.158Z,100336.09
2023-05-30T09:07:35.628Z,100347.19
2023-05-30T09:10:38.994Z,100328.94
2023-05-30T09:13:43.003Z,100362.81
2023-05-30T09:16:46.547Z,100350.69
2023-05-30T09:19:49.852Z,100365.94
2023-05-30T09:22:52.549Z,100360.28
2023-05-30T09:25:55.840Z,100363.44
2023-05-30T09:29:02.677Z,100364.66
2023-05-30T09:32:05.981Z,100334.63
2023-05-30T09:35:11.097Z,100339.22
2023-05-30T09:38:17.325Z,100341.16
2023-05-30T09:41:20.209Z,100290.69
2023-05-30T09:44:26.336Z,100339.41
2023-05-30T09:47:29.124Z,100336.28
2023-05-30T09:50:32.274Z,100295.97
2023-05-30T09:53:34.971Z,100338.78
2023-05-30T09:56:39.031Z,100286.41
2023-05-30T09:59:41.965Z,100286.41
2023-05-30T10:02:54.173Z,100285.16
2023-05-30T10:05:58.008Z,100305.09
2023-05-30T10:09:01.288Z,100300.09
2023-05-30T10:12:04.807Z,100310.56
2023-05-30T10:15:09.587Z,100344.56
2023-05-30T10:18:17.393Z,100335.22
2023-05-30T10:21:23.357Z,100313.25
2023-05-30T10:24:27.211Z,100345.94
2023-05-30T10:27:35.926Z,100302.53
2023-05-30T10:30:39.658Z,100313.44
2023-05-30T10:37:00.774Z,100351.25
2023-05-30T10:40:13.805Z,100342.72
2023-05-30T10:43:46.157Z,100363.41
2023-05-30T10:47:06.730Z,100368.84
2023-05-30T10:50:16.022Z,100333.31
2023-05-30T10:53:19.530Z,100317.84
2023-05-30T10:56:42.134Z,100354.16
2023-05-30T10:59:44.827Z,100346.94
2023-05-30T11:02:54.665Z,100350.69
2023-05-30T11:05:57.857Z,100317.66
2023-05-30T11:09:08.679Z,100345.16
2023-05-30T11:12:23.229Z,100314.22
2023-05-30T11:15:36.590Z,100343.00
2023-05-30T11:18:42.127Z,100347.31
2023-05-30T11:22:03.350Z,100315.31
2023-05-30T11:25:19.492Z,100334.91
2023-05-30T11:28:37.469Z,100351.56
2023-05-30T11:31:40.850Z,100346.81
2023-05-30T11:34:43.861Z,100349.66
2023-05-30T11:37:47.014Z,100310.63
2023-05-30T11:40:58.911Z,100327.72
2023-05-30T11:44:03.110Z,100273.78
2023-05-30T11:47:31.816Z,100342.03
2023-05-30T11:50:44.918Z,100317.53
2023-05-30T11:53:48.342Z,100298.44
2023-05-30T11:57:01.437Z,100311.91
2023-05-30T12:00:16.806Z,100271.81
2023-05-30T12:03:20.125Z,100275.09
2023-05-30T12:06:23.448Z,100325.03
2023-05-30T12:09:30.726Z,100266.00
2023-05-30T12:12:33.990Z,100303.16
2023-05-30T12:15:40.032Z,100301.53
2023-05-30T12:18:42.962Z,100307.69
2023-05-30T12:21:45.959Z,100295.63
2023-05-30T12:24:50.586Z,100273.88
2023-05-30T12:27:56.640Z,100306.03
2023-05-30T12:30:59.588Z,100274.41
2023-05-30T12:34:03.118Z,100340.84
2023-05-30T12:37:13.217Z,100279.72
2023-05-30T12:40:16.489Z,100324.94
2023-05-30T12:43:29.563Z,100334.94
2023-05-30T12:46:35.268Z,100296.91
2023-05-30T12:49:38.725Z,100333.13
2023-05-30T12:52:47.227Z,100317.84
2023-05-30T12:55:50.435Z,100299.44
2023-05-30T12:58:53.388Z,100323.59
2023-05-30T13:01:59.551Z,100288.22
2023-05-30T13:05:02.804Z,100330.47
2023-05-30T13:08:06.075Z,100325.00
2023-05-30T13:11:09.381Z,100298.66
2023-05-30T13:14:12.169Z,100310.84
2023-05-30T13:17:15.601Z,100306.19
2023-05-30T13:20:18.977Z,100299.34
2023-05-30T13:23:23.013Z,100243.59
2023-05-30T13:26:26.855Z,100243.38
2023-05-30T13:29:29.613Z,100280.13
2023-05-30T13:32:32.725Z,100272.44
2023-05-30T13:35:35.625Z,100268.38
2023-05-30T13:38:40.574Z,100232.81
2023-05-30T13:41:43.459Z,100247.06
2023-05-30T13:44:46.486Z,100237.84
2023-05-30T13:47:51.820Z,100233.09
2023-05-30T13:50:55.426Z,100216.25
2023-05-30T13:54:02.486Z,100224.25
2023-05-30T13:57:06.679Z,100232.34
2023-05-30T14:00:10.390Z,100214.56
2023-05-30T14:03:13.648Z,100260.25
2023-05-30T14:06:17.465Z,100234.25
2023-05-30T14:09:23.555Z,100213.84
2023-05-30T14:12:27.667Z,100242.53
2023-05-30T14:15:31.963Z,100259.25
2023-05-30T14:18:34.787Z,100218.13
2023-05-30T14:21:41.244Z,100218.44
2023-05-30T14:24:45.375Z,100208.09
2023-05-30T14:27:48.278Z,100210.22
2023-05-30T14:30:51.135Z,100208.31
2023-05-30T14:33:54.033Z,100236.84
2023-05-30T14:36:56.945Z,100234.06
2023-05-30T14:40:00.606Z,100225.75
2023-05-30T14:43:03.594Z,100231.09
2023-05-30T14:46:06.901Z,100225.59
2023-05-30T14:49:09.788Z,100230.38
2023-05-30T14:52:12.865Z,100235.09
2023-05-30T14:55:15.871Z,100272.63
2023-05-30T14:58:18.899Z,100223.75
2023-05-30T15:04:28.085Z,100281.19
2023-05-30T15:07:31.429Z,100279.91
2023-05-30T15:10:34.084Z,100279.31
2023-05-30T15:13:37.017Z,100244.59
2023-05-30T15:16:40.683Z,100235.19
2023-05-30T15:19:43.615Z,100262.00
2023-05-30T15:22:46.466Z,100239.75
2023-05-30T15:25:49.149Z,100223.94
2023-05-30T15:28:52.204Z,100218.59
2023-05-30T15:31:55.394Z,100261.38
2023-05-30T15:34:58.245Z,100268.47
2023-05-30T15:38:01.141Z,100264.06
2023-05-30T15:41:03.889Z,100256.50
2023-05-30T15:44:07.087Z,100222.38
2023-05-30T15:47:09.962Z,100208.44
2023-05-30T15:50:13.795Z,100229.56
2023-05-30T15:53:16.542Z,100255.53
2023-05-30T15:56:20.045Z,100263.16
2023-05-30T15:59:22.843Z,100213.06
2023-05-30T16:02:25.886Z,100229.91
2023-05-30T16:05:29.254Z,100252.13
2023-05-30T16:08:32.118Z,100229.88
2023-05-30T16:11:35.014Z,100219.38
2023-05-30T16:14:38.042Z,100259.03
2023-05-30T16:17:41.008Z,100228.06
2023-05-30T16:20:45.050Z,100202.16
2023-05-30T16:23:47.912Z,100231.44
2023-05-30T16:26:52.088Z,100260.88
2023-05-30T16:29:55.571Z,100278.78
2023-05-30T16:32:58.332Z,100246.84
2023-05-30T16:36:09.101Z,100262.50
2023-05-30T16:39:13.368Z,100243.97
2023-05-30T16:42:16.123Z,100256.50
2023-05-30T16:45:18.969Z,100237.56
2023-05-30T16:48:23.737Z,100261.75
2023-05-30T16:51:26.996Z,100264.81
2023-05-30T16:54:29.728Z,100337.06
2023-05-30T16:57:34.395Z,100294.50
2023-05-30T17:00:37.222Z,100280.69
2023-05-30T17:03:41.730Z,100277.75
2023-05-30T17:06:44.718Z,100311.81
2023-05-30T17:09:47.520Z,100345.06
2023-05-30T17:12:51.449Z,100297.63
2023-05-30T17:15:54.340Z,100299.47
2023-05-30T17:18:59.660Z,100289.34
2023-05-30T17:22:02.433Z,100303.50
2023-05-30T17:25:05.639Z,100301.53
2023-05-30T17:28:08.410Z,100302.53
2023-05-30T17:31:11.217Z,100305.81
2023-05-30T17:34:13.948Z,100348.91
2023-05-30T17:37:17.080Z,100327.25
2023-05-30T17:40:20.076Z,100289.50
2023-05-30T17:43:24.442Z,100359.81
2023-05-30T17:46:27.348Z,100306.94
2023-05-30T17:49:30.287Z,100345.44
2023-05-30T17:52:33.060Z,100331.72
2023-05-30T17:55:36.270Z,100311.81
2023-05-30T17:58:39.110Z,100315.03
2023-05-30T18:01:42.353Z,100285.41
2023-05-30T18:04:45.176Z,100278.44
2023-05-30T18:07:48.092Z,100264.94
2023-05-30T18:10:51.363Z,100297.72
2023-05-30T18:13:54.089Z,100303.59
2023-05-30T18:16:56.766Z,100257.84
2023-05-30T18:20:05.909Z,100251.88
2023-05-30T18:23:09.684Z,100303.81
2023-05-30T18:26:14.204Z,100283.06
2023-05-30T18:29:17.163Z,100309.88
2023-05-30T18:32:19.883Z,100293.94
2023-05-30T18:35:22.695Z,100303.84
2023-05-30T18:38:25.617Z,100325.88
2023-05-30T18:41:28.346Z,100302.91
2023-05-30T18:44:31.261Z,100300.47
2023-05-30T18:47:34.010Z,100312.25
2023-05-30T18:50:36.812Z,100297.38
2023-05-30T18:53:39.572Z,100308.41
2023-05-30T18:56:47.567Z,100360.66
2023-05-30T18:59:50.564Z,100309.06
2023-05-30T19:02:54.952Z,100332.75
2023-05-30T19:05:57.969Z,100381.50
2023-05-30T19:09:01.541Z,100384.94
2023-05-30T19:12:04.612Z,100334.97
2023-05-30T19:15:07.764Z,100357.94
2023-05-30T19:18:10.540Z,100349.28
2023-05-30T19:21:13.266Z,100363.09
2023-05-30T19:24:18.920Z,100341.94
2023-05-30T19:27:22.259Z,100333.63
2023-05-30T19:30:25.099Z,100396.69
2023-05-30T19:33:28.922Z,100348.06
2023-05-30T19:36:31.639Z,100381.78
2023-05-30T19:39:36.778Z,100341.41
2023-05-30T19:42:39.600Z,100347.81
2023-05-30T19:45:43.714Z,100365.88
2023-05-30T19:48:49.692Z,100345.38
2023-05-30T19:51:52.663Z,100397.41
2023-05-30T19:54:55.391Z,100344.22
2023-05-30T19:57:58.052Z,100364.84
2023-05-30T20:01:01.509Z,100368.16
2023-05-30T20:04:07.459Z,100351.81
2023-05-30T20:07:10.328Z,100364.56
2023-05-30T20:10:13.048Z,100397.19
2023-05-30T20:13:16.892Z,100355.22
2023-05-30T20:16:20.806Z,100377.41
2023-05-30T20:19:23.574Z,100355.88
2023-05-30T20:22:27.437Z,100342.59
2023-05-30T20:25:30.463Z,100399.44
2023-05-30T20:28:33.634Z,100389.75
2023-05-30T20:31:36.538Z,100322.81
2023-05-30T20:34:39.255Z,100399.31
2023-05-30T20:37:42.068Z,100407.97
2023-05-30T20:40:45.431Z,100406.59
2023-05-30T20:43:51.661Z,100345.03
2023-05-30T20:46:57.021Z,100355.75
2023-05-30T20:50:04.667Z,100369.91
2023-05-30T20:53:12.858Z,100331.38
2023-05-30T20:56:19.396Z,100368.91
2023-05-30T20:59:22.134Z,100411.47
2023-05-30T21:02:25.072Z,100339.34
2023-05-30T21:05:27.911Z,100389.03
2023-05-30T21:08:31.097Z,100409.03
2023-05-30T21:11:33.953Z,100377.03
2023-05-30T21:14:36.776Z,100414.59
2023-05-30T21:17:39.721Z,100384.34
2023-05-30T21:20:44.254Z,100383.50
2023-05-30T21:23:47.361Z,100384.53
2023-05-30T21:26:50.186Z,100433.06
2023-05-30T21:29:55.595Z,100442.44
2023-05-30T21:32:58.421Z,100399.19
2023-05-30T21:36:01.206Z,100390.03
2023-05-30T21:39:04.306Z,100391.41
2023-05-30T21:42:07.565Z,100382.81
2023-05-30T21:45:13.830Z,100427.97
2023-05-30T21:48:16.629Z,100410.22
2023-05-30T21:51:19.375Z,100420.19
2023-05-30T21:54:43.872Z,100432.84
2023-05-30T21:57:46.715Z,100447.66
2023-05-30T22:00:49.987Z,100411.91
2023-05-30T22:03:53.212Z,100422.09
2023-05-30T22:06:57.323Z,100404.63
2023-05-30T22:10:00.305Z,100463.38
2023-05-30T22:13:03.325Z,100418.56
2023-05-30T22:16:06.095Z,100462.06
2023-05-30T22:19:08.926Z,100450.22
2023-05-30T22:22:11.563Z,100395.06
2023-05-30T22:25:14.314Z,100397.00
2023-05-30T22:28:17.053Z,100415.34
2023-05-30T22:31:19.848Z,100456.31
2023-05-30T22:34:22.608Z,100419.69
2023-05-30T22:37:25.409Z,100414.03
2023-05-30T22:40:28.219Z,100439.06
2023-05-30T22:43:30.943Z,100392.47
2023-05-30T22:46:33.981Z,100449.06
2023-05-30T22:49:36.920Z,100364.50
2023-05-30T22:52:39.626Z,100395.09
2023-05-30T22:55:42.423Z,100425.97
2023-05-30T22:58:45.145Z,100383.00
2023-05-30T23:01:48.051Z,100404.34
2023-05-30T23:04:50.950Z,100429.53
2023-05-30T23:07:53.766Z,100435.44
2023-05-30T23:10:56.554Z,100451.59
2023-05-30T23:13:59.339Z,100378.03
2023-05-30T23:17:02.052Z,100388.44
2023-05-30T23:20:05.405Z,100442.84
2023-05-30T23:23:08.160Z,100397.00
2023-05-30T23:26:10.906Z,100384.69
2023-05-30T23:29:13.748Z,100364.25
2023-05-30T23:32:16.668Z,100416.19
2023-05-30T23:35:19.788Z,100393.88
2023-05-30T23:38:22.573Z,100431.38
2023-05-30T23:41:26.593Z,100373.13
2023-05-30T23:44:29.384Z,100368.34
2023-05-30T23:47:32.185Z,100353.31
2023-05-30T23:50:35.026Z,100424.31
2023-05-30T23:53:37.764Z,100368.50
2023-05-30T23:56:40.594Z,100411.03
2023-05-30T23:59:43.579Z,100390.69
